Time;durP1;ratioP1;P1;durP2;ratioP2;P2;SDS_P1;SDS_P2;PMS_P1;PMS_P2;Temp;Humidity;BMP_temperature;BMP_pressure;BME280_temperature;BME280_humidity;BME280_pressure;Samples;Min_cycle;Max_cycle;Signal;HPM_P1;HPM_P2
2022/05/20 00:07:10;;;;;;;2.8;5.2;;;;;;;-133;62;65280;;;;
2022/05/20 00:18:10;;;;;;;2.8;4.3;;;;;;;-133;62.5;65280;;;;
2022/05/20 00:29:09;;;;;;;2.8;4.3;;;;;;;-133;63.6;65280;;;;
2022/05/20 00:39:09;;;;;;;2.7;6.2;;;;;;;-133;64.7;65290;;;;
2022/05/20 00:49:09;;;;;;;2.7;6.2;;;;;;;-133;68.3;65290;;;;
2022/05/20 01:00:10;;;;;;;2.7;6.2;;;;;;;-133;66.6;65290;;;;
2022/05/20 01:10:10;;;;;;;2.4;5.7;;;;;;;-133;70.8;65280;;;;
2022/05/20 01:21:10;;;;;;;2.4;5.7;;;;;;;-133;70.5;65280;;;;
2022/05/20 01:31:10;;;;;;;2.4;5.7;;;;;;;-133;72.2;65290;;;;
2022/05/20 01:41:10;;;;;;;2.5;5.1;;;;;;;-133;72.5;65280;;;;
2022/05/20 01:52:10;;;;;;;2.5;5.1;;;;;;;-133;72.7;65290;;;;
2022/05/20 02:02:10;;;;;;;2.5;5.1;;;;;;;-133;72.4;65280;;;;
2022/05/20 02:13:10;;;;;;;2.4;4.5;;;;;;;-133;75.8;65290;;;;
2022/05/20 02:24:10;;;;;;;2.4;4.5;;;;;;;-133;76.7;65290;;;;
2022/05/20 02:35:10;;;;;;;2.4;4.5;;;;;;;-133;77.2;65290;;;;
2022/05/20 02:45:10;;;;;;;2.3;4.3;;;;;;;-133;65.3;65280;;;;
2022/05/20 02:55:10;;;;;;;2.3;4.3;;;;;;;-133;59;65280;;;;
2022/05/20 03:06:10;;;;;;;2.3;4.3;;;;;;;-133;56.9;65280;;;;
2022/05/20 03:16:10;;;;;;;1.5;3.7;;;;;;;-133;60.3;65280;;;;
2022/05/20 03:27:10;;;;;;;1.5;3.7;;;;;;;-133;63.5;65280;;;;
2022/05/20 03:37:10;;;;;;;1.5;3.7;;;;;;;-133;66.9;65280;;;;
2022/05/20 03:48:10;;;;;;;3;6.5;;;;;;;-133;69.7;65280;;;;
2022/05/20 03:58:10;;;;;;;3;6.5;;;;;;;-133;68.2;65280;;;;
2022/05/20 04:09:10;;;;;;;5.6;11.9;;;;;;;-133;72.7;65280;;;;
2022/05/20 04:27:46;;;;;;;8.7;11.9;;;;;;;-133;73.4;65270;;;;
2022/05/20 04:37:46;;;;;;;8.7;11.9;;;;;;;-133;73.3;65270;;;;
2022/05/20 04:48:46;;;;;;;5.4;11.5;;;;;;;-133;66.7;65270;;;;
2022/05/20 04:59:46;;;;;;;5.4;11.5;;;;;;;-133;62.2;65270;;;;
2022/05/20 05:09:47;;;;;;;5.4;11.5;;;;;;;-133;58.9;65270;;;;
2022/05/20 05:19:46;;;;;;;1.6;4.5;;;;;;;-133;57.4;65260;;;;
2022/05/20 05:29:46;;;;;;;1.6;4.5;;;;;;;-133;56.1;65260;;;;
2022/05/20 05:39:46;;;;;;;1.6;4.5;;;;;;;-133;53.8;65260;;;;
2022/05/20 05:49:46;;;;;;;3.8;9.3;;;;;;;-133;54.9;65260;;;;
2022/05/20 06:00:47;;;;;;;3.8;9.3;;;;;;;-133;53.6;65260;;;;
2022/05/20 06:11:46;;;;;;;3.8;9.3;;;;;;;-133;50.4;65250;;;;
2022/05/20 06:21:46;;;;;;;4.4;11;;;;;;;-133;48.9;65250;;;;
2022/05/20 06:32:46;;;;;;;4.4;11;;;;;;;-133;50.3;65250;;;;
2022/05/20 06:42:47;;;;;;;4.4;11;;;;;;;-133;50.6;65240;;;;
2022/05/20 06:53:46;;;;;;;4.6;11.1;;;;;;;-133;49;65250;;;;
2022/05/20 07:03:47;;;;;;;4.6;11.1;;;;;;;-133;48.7;65240;;;;
2022/05/20 07:14:47;;;;;;;4.6;11.1;;;;;;;-133;45.4;65240;;;;
2022/05/20 07:24:47;;;;;;;3.5;11.4;;;;;;;-133;46.6;65240;;;;
2022/05/20 07:34:47;;;;;;;3.5;11.4;;;;;;;-133;46;65240;;;;
2022/05/20 07:45:47;;;;;;;3.5;11.4;;;;;;;-133;45.6;65230;;;;
2022/05/20 07:56:49;;;;;;;3.6;7.8;;;;;;;-133;44.6;65230;;;;
2022/05/20 08:06:47;;;;;;;3.6;7.8;;;;;;;-133;44.5;65240;;;;
2022/05/20 08:17:46;;;;;;;3.6;7.8;;;;;;;-133;44.7;65240;;;;
2022/05/20 08:27:47;;;;;;;3.3;11.5;;;;;;;-133;45.3;65240;;;;
2022/05/20 08:37:47;;;;;;;3.3;11.5;;;;;;;-133;45.4;65240;;;;
2022/05/20 08:48:47;;;;;;;2.6;7.4;;;;;;;-133;46.3;65240;;;;
2022/05/20 09:09:47;;;;;;;2.6;7.4;;;;;;;-133;45.5;65240;;;;
2022/05/20 09:19:47;;;;;;;2.6;6.8;;;;;;;-133;45.7;65240;;;;
2022/05/20 09:29:47;;;;;;;2.6;6.8;;;;;;;-133;45.1;65240;;;;
2022/05/20 09:39:47;;;;;;;2.6;6.8;;;;;;;-133;44.6;65240;;;;
2022/05/20 09:50:47;;;;;;;2.2;6.4;;;;;;;-133;47;65240;;;;
2022/05/20 10:00:47;;;;;;;2.2;6.4;;;;;;;-133;45.4;65240;;;;
2022/05/20 10:10:47;;;;;;;2.2;6.4;;;;;;;-133;45.5;65240;;;;
2022/05/20 10:21:48;;;;;;;2.1;5.3;;;;;;;-133;46.7;65240;;;;
2022/05/20 10:32:51;;;;;;;2.1;5.3;;;;;;;-133;46.3;65240;;;;
2022/05/20 10:41:47;;;;;;;2.1;5.3;;;;;;;-133;46.1;65240;;;;
2022/05/20 10:51:47;;;;;;;1.8;5.2;;;;;;;-133;44.7;65240;;;;
2022/05/20 11:02:47;;;;;;;1.8;5.2;;;;;;;-133;44.2;65240;;;;
2022/05/20 11:12:48;;;;;;;1.8;5.2;;;;;;;-133;44.1;65240;;;;
2022/05/20 11:23:47;;;;;;;1.9;4;;;;;;;-133;44;65240;;;;
2022/05/20 11:33:47;;;;;;;1.9;4;;;;;;;-133;44.7;65240;;;;
2022/05/20 11:43:47;;;;;;;1.9;4;;;;;;;-133;44;65240;;;;
2022/05/20 11:54:47;;;;;;;2;5.7;;;;;;;-133;43.6;65240;;;;
2022/05/20 12:05:47;;;;;;;2;5.7;;;;;;;-133;43.2;65240;;;;
2022/05/20 12:15:47;;;;;;;2;5.7;;;;;;;-133;42.9;65240;;;;
2022/05/20 12:25:47;;;;;;;1.5;4.9;;;;;;;-133;42.2;65240;;;;
2022/05/20 12:35:47;;;;;;;1.5;4.9;;;;;;;-133;41.6;65240;;;;
2022/05/20 12:46:47;;;;;;;1.5;4.9;;;;;;;-133;41.5;65240;;;;
2022/05/20 12:56:47;;;;;;;1.6;4.2;;;;;;;-133;40.8;65240;;;;
2022/05/20 13:06:47;;;;;;;1.6;4.2;;;;;;;-133;38.9;65230;;;;
2022/05/20 13:17:47;;;;;;;1.6;4.2;;;;;;;-133;38.6;65240;;;;
2022/05/20 13:27:47;;;;;;;1.7;7;;;;;;;-133;38.7;65240;;;;
2022/05/20 13:37:47;;;;;;;1.7;7;;;;;;;-133;39.5;65240;;;;
2022/05/20 13:49:18;;;;;;;1.7;7;;;;;;;-133;38.5;65240;;;;
2022/05/20 13:59:48;;;;;;;1.6;5;;;;;;;-133;39.8;65240;;;;
2022/05/20 14:10:47;;;;;;;1.6;5;;;;;;;-133;39.8;65240;;;;
2022/05/20 14:20:47;;;;;;;1.5;5.9;;;;;;;-133;39.8;65240;;;;
2022/05/20 14:31:47;;;;;;;1.5;5.9;;;;;;;-133;38.9;65240;;;;
2022/05/20 14:42:47;;;;;;;1.5;5.9;;;;;;;-133;38.4;65240;;;;
2022/05/20 14:52:47;;;;;;;2;5.8;;;;;;;-133;38.7;65240;;;;
2022/05/20 15:02:47;;;;;;;2;5.8;;;;;;;-133;36.7;65240;;;;
2022/05/20 15:12:47;;;;;;;2;5.8;;;;;;;-133;35.2;65240;;;;
2022/05/20 15:23:47;;;;;;;2.2;8.2;;;;;;;-133;35.7;65240;;;;
2022/05/20 15:43:47;;;;;;;2.2;8.2;;;;;;;-133;35.7;65240;;;;
2022/05/20 15:54:47;;;;;;;1.6;3.8;;;;;;;-133;37.1;65240;;;;
2022/05/20 16:04:47;;;;;;;1.6;3.8;;;;;;;-133;37.7;65240;;;;
2022/05/20 16:14:47;;;;;;;1.6;3.8;;;;;;;-133;39.3;65240;;;;
2022/05/20 16:25:47;;;;;;;2.4;5.4;;;;;;;-133;34.4;65240;;;;
2022/05/20 16:36:47;;;;;;;2.4;5.4;;;;;;;-133;33.5;65240;;;;
2022/05/20 16:46:47;;;;;;;2.4;5.4;;;;;;;-133;32.1;65240;;;;
2022/05/20 17:06:47;;;;;;;1.5;3.7;;;;;;;-133;34.4;65240;;;;
2022/05/20 17:16:47;;;;;;;1.5;3.7;;;;;;;-133;37.9;65240;;;;
2022/05/20 17:26:47;;;;;;;2.3;8.4;;;;;;;-133;41.4;65240;;;;
2022/05/20 17:36:47;;;;;;;2.3;8.4;;;;;;;-133;43.6;65250;;;;
2022/05/20 17:47:48;;;;;;;2.3;8.4;;;;;;;-133;43.5;65250;;;;
2022/05/20 17:58:47;;;;;;;3.4;11.5;;;;;;;-133;47.6;65250;;;;
2022/05/20 18:08:47;;;;;;;3.4;11.5;;;;;;;-133;49.9;65250;;;;
2022/05/20 18:19:47;;;;;;;5.8;13.3;;;;;;;-133;54.1;65250;;;;
2022/05/20 18:30:47;;;;;;;5.8;13.3;;;;;;;-133;55.5;65250;;;;
2022/05/20 18:41:47;;;;;;;5.8;13.3;;;;;;;-133;58.8;65250;;;;
2022/05/20 18:51:47;;;;;;;3.7;9.2;;;;;;;-133;62.3;65250;;;;
2022/05/20 19:02:47;;;;;;;3.7;9.2;;;;;;;-133;63.2;65250;;;;
2022/05/20 19:12:47;;;;;;;3.7;9.2;;;;;;;-133;64.2;65250;;;;
2022/05/20 19:20:52;;;;;;;3.3;6.5;;;;;;;-133;65.5;65250;;;;
2022/05/20 19:30:52;;;;;;;3.3;6.5;;;;;;;-133;65.5;65250;;;;
2022/05/20 19:40:52;;;;;;;3.3;6.5;;;;;;;-133;65.9;65250;;;;
2022/05/20 19:51:52;;;;;;;3.9;9.7;;;;;;;-133;67.1;65250;;;;
2022/05/20 20:01:53;;;;;;;3.9;9.7;;;;;;;-133;67.6;65250;;;;
2022/05/20 20:12:53;;;;;;;3.9;9.7;;;;;;;-133;66.7;65250;;;;
2022/05/20 20:33:56;;;;;;;3.9;6.8;;;;;;;-133;66.6;65250;;;;
2022/05/20 20:43:52;;;;;;;3.9;6.8;;;;;;;-133;67;65260;;;;
2022/05/20 20:53:52;;;;;;;3.8;8.3;;;;;;;-133;67.7;65260;;;;
2022/05/20 21:03:52;;;;;;;3.8;8.3;;;;;;;-133;67.8;65260;;;;
2022/05/20 21:14:53;;;;;;;3.8;8.3;;;;;;;-133;68.3;65250;;;;
2022/05/20 21:25:52;;;;;;;4.2;6.8;;;;;;;-133;68.7;65260;;;;
2022/05/20 21:35:52;;;;;;;4.2;6.8;;;;;;;-133;68.4;65250;;;;
2022/05/20 21:45:52;;;;;;;4.2;6.8;;;;;;;-133;69.2;65260;;;;
2022/05/20 21:56:52;;;;;;;3.9;7.3;;;;;;;-133;69;65250;;;;
2022/05/20 22:08:56;;;;;;;3.9;7.3;;;;;;;-133;69.1;65250;;;;
2022/05/20 22:17:52;;;;;;;3.9;7.3;;;;;;;-133;69.1;65250;;;;
2022/05/20 22:28:52;;;;;;;3.3;7;;;;;;;-133;67;65260;;;;
2022/05/20 22:38:52;;;;;;;3.3;7;;;;;;;-133;67.1;65260;;;;
2022/05/20 22:49:52;;;;;;;2.7;5.9;;;;;;;-133;67.4;65260;;;;
2022/05/20 23:00:53;;;;;;;2.7;5.9;;;;;;;-133;66.6;65260;;;;
2022/05/20 23:11:52;;;;;;;2.7;5.9;;;;;;;-133;65.5;65260;;;;
2022/05/20 23:22:52;;;;;;;2.6;5.6;;;;;;;-133;63.9;65250;;;;
2022/05/20 23:33:54;;;;;;;2.6;5.6;;;;;;;-133;63.8;65250;;;;
2022/05/20 23:43:52;;;;;;;2.6;5.6;;;;;;;-133;64.3;65250;;;;
